Details From MKJP - Norman Manley Intl
To MDJB - Dr Joaquin Balaguer Intl
Flight Number -
Tags decoded
Created
Modified
Stats Distance 403 nm / 747 km
Max Altitude 0 ft / 0 m
Waypoints 7
Social Downloads 3
Likes 0
Share VATSIM

Download

Looking for another format? Having issues loading an existing format? Contact us
Advertisement - Login to hide

Notes

Requested: MKJP SASON NALGA DCR KANAM TUBAL MDJB

Route

MKJP SASON NALGA DCR KANAM TUBAL MDJB

ID Type Via Altitude Latitude Longitude Leg Dist Tot Dist Heading (true) Name
O MKJP APT - 0 ft / 0 m 17.93567˚ -76.78756˚ - 0 nm - Norman Manley Intl
SASON FIX - 0 ft / 0 m 17.94833˚ -74.25667˚ 144 nm 144 nm 89° / 90° -
NALGA FIX - 0 ft / 0 m 17.93500˚ -71.95833˚ 131 nm 275 nm 90° / 91° -
DCR VOR - 0 ft / 0 m 17.93167˚ -71.64833˚ 17 nm 293 nm 91° / 91° CABO ROJO VOR-DME
KANAM FIX - 0 ft / 0 m 18.12972˚ -70.48361˚ 67 nm 361 nm 80° / 80° -
TUBAL FIX - 0 ft / 0 m 18.26089˚ -70.13211˚ 21 nm 382 nm 69° / 69° -
O MDJB APT - 0 ft / 0 m 18.57251˚ -69.98561˚ 20 nm 403 nm 24° / 24° Dr Joaquin Balaguer Intl

Altitude Profile

Advertisement - Login to hide

Weather


0- 5 10 15 20 25 30 35+ Temperature / ° C

Clouds and Precipitation
Forecast for 2017-12-17 00:00 UTC. Updated an hour ago

Ground ~20,000 ft ~40,000 ft Winds

MKJP

Details ICAO MKJP (KIN)
Name Norman Manley Intl
Region Jamaica
Timezone Unknown (UTC+0.0)
Stats Elevation 10 ft / 3 m (AMSL)
Location 17.935665° -76.787560°
Runways 1
Magnetic Variation 7.542° W

METAR

MKJP 162200Z 16006KT 9999 FEW022 30/23 Q1013

Decode

TAF

TAF MKJP 161715Z 1618/1718 17015KT 9999 FEW022 BECMG 1701/1703 35007KT BECMG 1714/1716 15018KT

Decode

Departure Runways

ID Width Length Bearing (true) Bearing (mag) Surface Threshold Offset Overrun Length
12 150 ft / 46 m 8,912 ft / 2,717 m 112.09° 119.63° Asphalt 0 ft / 0 m 0 ft / 0 m
30 150 ft / 46 m 8,912 ft / 2,717 m 292.10° 299.64° Asphalt 0 ft / 0 m 0 ft / 0 m

MDJB

Details ICAO MDJB (JBQ)
Name Dr Joaquin Balaguer Intl
Region Dominican Republic
Timezone America/Santo_Domingo (UTC-4.0)
Stats Elevation 98 ft / 30 m (AMSL)
Location 18.572512° -69.985608°
Runways 1
Magnetic Variation 11.393° W

METAR

MDJB 162200Z 02006KT 9999 FEW022 BKN300 28/23 Q1016 NOSIG

Decode

TAF

Not found

Destination Runways

ID Width Length Bearing (true) Bearing (mag) Surface Threshold Offset Overrun Length
01 100 ft / 30 m 5,448 ft / 1,661 m 6.40° 17.79° Asphalt 0 ft / 0 m 90 ft / 27 m
19 100 ft / 30 m 5,448 ft / 1,661 m 186.40° 197.79° Asphalt 0 ft / 0 m 105 ft / 32 m